createdAt,value
2018-11-29T00:00:49.565Z,21.20
2018-11-29T00:03:18.008Z,22.30
2018-11-29T00:05:46.318Z,19.10
2018-11-29T00:08:14.634Z,20.37
2018-11-29T00:10:42.943Z,23.43
2018-11-29T00:13:11.241Z,19.93
2018-11-29T00:15:39.534Z,22.57
2018-11-29T00:18:07.951Z,21.90
2018-11-29T00:20:36.246Z,21.53
2018-11-29T00:23:04.592Z,20.37
2018-11-29T00:25:32.898Z,22.63
2018-11-29T00:28:01.182Z,24.30
2018-11-29T00:30:29.510Z,21.50
2018-11-29T00:32:57.802Z,21.80
2018-11-29T00:35:26.114Z,24.00
2018-11-29T00:37:54.423Z,21.13
2018-11-29T00:40:23.459Z,23.07
2018-11-29T00:42:51.995Z,22.73
2018-11-29T00:45:21.407Z,24.57
2018-11-29T00:47:49.946Z,24.50
2018-11-29T00:50:18.907Z,24.23
2018-11-29T00:52:48.100Z,23.87
2018-11-29T00:55:19.258Z,24.03
2018-11-29T00:57:47.586Z,22.17
2018-11-29T01:00:19.769Z,25.00
2018-11-29T01:02:48.071Z,23.60
2018-11-29T01:05:16.407Z,24.40
2018-11-29T01:07:44.731Z,21.83
2018-11-29T01:10:13.975Z,23.77
2018-11-29T01:12:42.434Z,24.47
2018-11-29T01:15:12.954Z,25.07
2018-11-29T01:17:41.282Z,23.40
2018-11-29T01:20:12.027Z,21.63
2018-11-29T01:22:40.355Z,22.07
2018-11-29T01:25:11.491Z,23.77
2018-11-29T01:27:39.954Z,23.43
2018-11-29T01:30:11.995Z,23.57
2018-11-29T01:32:40.305Z,22.00
2018-11-29T01:35:10.774Z,24.10
2018-11-29T01:37:39.094Z,23.60
2018-11-29T01:40:17.986Z,23.43
2018-11-29T01:42:51.528Z,21.17
2018-11-29T01:45:19.842Z,24.00
2018-11-29T01:47:48.127Z,23.63
2018-11-29T01:50:16.529Z,23.83
2018-11-29T01:52:44.809Z,24.50
2018-11-29T01:55:13.148Z,23.67
2018-11-29T01:57:41.442Z,24.43
2018-11-29T02:00:13.786Z,24.30
2018-11-29T02:02:42.151Z,24.93
2018-11-29T02:05:10.919Z,23.63
2018-11-29T02:07:39.967Z,22.37
2018-11-29T02:10:16.691Z,21.63
2018-11-29T02:12:44.985Z,23.90
2018-11-29T02:15:13.348Z,24.60
2018-11-29T02:17:41.660Z,22.30
2018-11-29T02:20:11.879Z,22.80
2018-11-29T02:22:40.234Z,24.90
2018-11-29T02:25:08.546Z,23.67
2018-11-29T02:27:37.201Z,23.93
2018-11-29T02:30:10.725Z,24.10
2018-11-29T02:32:39.065Z,22.40
2018-11-29T02:35:07.651Z,20.53
2018-11-29T02:37:35.945Z,24.37
2018-11-29T02:40:04.934Z,24.33
2018-11-29T02:42:33.234Z,22.00
2018-11-29T02:45:01.576Z,22.30
2018-11-29T02:47:29.857Z,22.70
2018-11-29T02:49:58.180Z,25.20
2018-11-29T02:52:26.468Z,22.37
2018-11-29T02:54:54.777Z,23.00
2018-11-29T02:57:23.051Z,22.30
2018-11-29T02:59:51.349Z,22.87
2018-11-29T03:02:19.633Z,23.70
2018-11-29T03:04:47.938Z,22.70
2018-11-29T03:07:16.218Z,24.10
2018-11-29T03:09:44.530Z,24.20
2018-11-29T03:12:12.822Z,21.00
2018-11-29T03:14:41.116Z,24.30
2018-11-29T03:17:09.402Z,23.67
2018-11-29T03:19:37.711Z,24.80
2018-11-29T03:22:06.323Z,21.80
2018-11-29T03:24:34.621Z,21.40
2018-11-29T03:27:02.927Z,23.33
2018-11-29T03:29:31.300Z,23.00
2018-11-29T03:31:59.587Z,23.30
2018-11-29T03:34:28.934Z,23.37
2018-11-29T03:36:57.241Z,23.50
2018-11-29T03:39:25.534Z,24.57
2018-11-29T03:41:53.818Z,23.83
2018-11-29T03:44:22.150Z,22.40
2018-11-29T03:46:50.442Z,23.47
2018-11-29T03:49:18.733Z,23.57
2018-11-29T03:51:47.058Z,22.90
2018-11-29T03:54:15.352Z,24.23
2018-11-29T03:56:43.626Z,23.27
2018-11-29T03:59:11.925Z,24.40
2018-11-29T04:01:40.208Z,22.90
2018-11-29T04:04:08.533Z,24.17
2018-11-29T04:06:36.844Z,24.23
2018-11-29T04:09:10.398Z,22.67
2018-11-29T04:11:38.716Z,23.83
2018-11-29T04:14:07.054Z,23.00
2018-11-29T04:16:35.379Z,22.57
2018-11-29T04:19:03.837Z,23.00
2018-11-29T04:21:32.141Z,25.80
2018-11-29T04:24:00.466Z,23.77
2018-11-29T04:26:28.771Z,23.87
2018-11-29T04:28:57.053Z,22.80
2018-11-29T04:31:25.390Z,22.30
2018-11-29T04:33:53.695Z,22.67
2018-11-29T04:36:22.063Z,23.30
2018-11-29T04:38:50.353Z,23.27
2018-11-29T04:41:18.664Z,21.40
2018-11-29T04:43:46.946Z,22.00
2018-11-29T04:46:47.754Z,22.00
2018-11-29T04:49:16.127Z,23.30
2018-11-29T04:51:44.512Z,22.63
2018-11-29T04:54:12.818Z,22.40
2018-11-29T04:56:41.157Z,22.43
2018-11-29T04:59:09.497Z,20.67
2018-11-29T05:01:38.099Z,21.60
2018-11-29T05:04:06.889Z,23.83
2018-11-29T05:06:35.216Z,22.53
2018-11-29T05:09:05.095Z,23.30
2018-11-29T05:11:33.414Z,22.50
2018-11-29T05:14:01.697Z,22.70
2018-11-29T05:16:30.009Z,22.70
2018-11-29T05:18:58.651Z,20.93
2018-11-29T05:21:26.965Z,22.20
2018-11-29T05:23:55.669Z,23.03
2018-11-29T05:26:24.005Z,21.03
2018-11-29T05:28:52.323Z,23.30
2018-11-29T05:31:20.642Z,21.90
2018-11-29T05:33:48.944Z,23.23
2018-11-29T05:36:17.246Z,20.67
2018-11-29T05:38:45.549Z,21.20
2018-11-29T05:41:13.903Z,21.80
2018-11-29T05:43:42.211Z,21.10
2018-11-29T05:46:10.574Z,22.43
2018-11-29T05:48:38.889Z,20.30
2018-11-29T05:51:07.235Z,23.00
2018-11-29T05:53:35.553Z,22.60
2018-11-29T05:56:03.917Z,21.80
2018-11-29T05:58:32.238Z,22.67
2018-11-29T06:01:25.162Z,21.00
2018-11-29T06:03:56.749Z,21.20
2018-11-29T06:06:36.797Z,20.20
2018-11-29T06:09:09.190Z,20.97
2018-11-29T06:11:50.698Z,22.70
2018-11-29T06:14:19.008Z,23.10
2018-11-29T06:16:47.334Z,24.30
2018-11-29T06:19:15.653Z,23.87
2018-11-29T06:21:44.013Z,19.93
2018-11-29T06:24:13.672Z,20.50
2018-11-29T06:26:40.758Z,19.53
2018-11-29T06:29:09.134Z,20.57
2018-11-29T06:31:37.493Z,20.43
2018-11-29T06:34:06.654Z,20.30
2018-11-29T06:36:34.990Z,19.87
2018-11-29T06:39:03.513Z,20.73
2018-11-29T06:41:31.883Z,21.70
2018-11-29T06:44:00.258Z,21.50
2018-11-29T06:46:28.634Z,23.00
2018-11-29T06:48:56.928Z,18.60
2018-11-29T06:51:25.273Z,22.63
2018-11-29T06:53:58.965Z,20.43
2018-11-29T06:56:27.814Z,21.43
2018-11-29T06:58:56.177Z,23.33
2018-11-29T07:01:24.526Z,22.20
2018-11-29T07:03:52.838Z,22.30
2018-11-29T07:06:21.148Z,22.67
2018-11-29T07:08:49.509Z,20.20
2018-11-29T07:11:17.882Z,23.90
2018-11-29T07:13:46.184Z,21.70
2018-11-29T07:16:14.663Z,26.70
2018-11-29T07:18:42.954Z,24.10
2018-11-29T07:21:22.769Z,20.43
2018-11-29T07:23:51.094Z,22.93
2018-11-29T07:26:19.426Z,20.50
2018-11-29T07:28:47.729Z,26.40
2018-11-29T07:31:16.037Z,22.90
2018-11-29T07:33:44.415Z,28.47
2018-11-29T07:36:12.749Z,21.23
2018-11-29T07:38:41.167Z,21.87
2018-11-29T07:41:09.471Z,23.67
2018-11-29T07:43:37.817Z,23.30
2018-11-29T07:46:06.398Z,22.63
2018-11-29T07:48:34.785Z,23.03
2018-11-29T07:51:03.121Z,22.87
2018-11-29T07:53:31.439Z,23.07
2018-11-29T07:55:59.766Z,22.40
2018-11-29T07:58:28.090Z,23.47
2018-11-29T08:00:56.409Z,22.83
2018-11-29T08:03:24.734Z,22.37
2018-11-29T08:05:53.102Z,25.37
2018-11-29T08:08:21.430Z,24.20
2018-11-29T08:10:49.749Z,31.60
2018-11-29T08:13:18.097Z,21.30
2018-11-29T08:15:46.417Z,22.30
2018-11-29T08:18:14.741Z,23.93
2018-11-29T08:20:43.033Z,22.00
2018-11-29T08:23:11.368Z,22.73
2018-11-29T08:25:39.693Z,22.20
2018-11-29T08:28:08.022Z,23.53
2018-11-29T08:30:36.345Z,23.33
2018-11-29T08:33:04.701Z,23.27
2018-11-29T08:35:33.009Z,22.60
2018-11-29T08:38:01.323Z,21.17
2018-11-29T08:40:29.627Z,24.43
2018-11-29T08:42:57.976Z,22.80
2018-11-29T08:45:26.280Z,22.30
2018-11-29T08:47:54.613Z,22.27
2018-11-29T08:50:22.927Z,23.30
2018-11-29T08:52:51.274Z,22.33
2018-11-29T08:55:21.105Z,21.20
2018-11-29T08:57:49.713Z,21.43
2018-11-29T09:00:20.190Z,21.63
2018-11-29T09:02:48.566Z,21.57
2018-11-29T09:05:16.914Z,23.10
2018-11-29T09:07:46.221Z,21.17
2018-11-29T09:10:16.562Z,21.37
2018-11-29T09:12:44.866Z,24.77
2018-11-29T09:15:14.089Z,27.93
2018-11-29T09:17:42.566Z,25.47
2018-11-29T09:20:13.077Z,23.27
2018-11-29T09:22:41.559Z,21.90
2018-11-29T09:25:12.097Z,23.00
2018-11-29T09:27:40.461Z,20.53
2018-11-29T09:30:13.989Z,22.53
2018-11-29T09:32:42.934Z,21.33
2018-11-29T09:35:11.297Z,23.40
2018-11-29T09:37:39.998Z,19.47
2018-11-29T09:40:12.810Z,20.50
2018-11-29T09:42:41.200Z,21.20
2018-11-29T09:45:12.036Z,20.37
2018-11-29T09:47:41.063Z,20.57
2018-11-29T09:50:10.795Z,20.43
2018-11-29T09:52:39.513Z,23.70
2018-11-29T09:55:09.001Z,21.80
2018-11-29T09:57:37.949Z,21.10
2018-11-29T10:00:13.538Z,21.20
2018-11-29T10:02:42.729Z,19.87
2018-11-29T10:05:11.813Z,23.30
2018-11-29T10:07:40.153Z,20.53
2018-11-29T10:10:10.129Z,20.93
2018-11-29T10:12:38.909Z,22.13
2018-11-29T10:15:09.354Z,23.20
2018-11-29T10:17:37.706Z,18.83
2018-11-29T10:20:11.776Z,21.80
2018-11-29T10:22:41.050Z,19.43
2018-11-29T10:25:10.953Z,22.80
2018-11-29T10:27:39.341Z,20.17
2018-11-29T10:30:15.422Z,20.73
2018-11-29T10:32:43.749Z,20.70
2018-11-29T10:35:12.066Z,21.40
2018-11-29T10:37:40.371Z,19.03
2018-11-29T10:40:09.856Z,18.90
2018-11-29T10:42:38.157Z,20.20
2018-11-29T10:45:10.640Z,21.00
2018-11-29T10:47:39.038Z,20.07
2018-11-29T10:50:12.219Z,22.90
2018-11-29T10:52:40.629Z,20.73
2018-11-29T10:55:16.111Z,19.70
2018-11-29T10:57:44.446Z,19.83
2018-11-29T11:00:23.469Z,23.57
2018-11-29T11:02:57.686Z,23.70
2018-11-29T11:05:26.015Z,19.50
2018-11-29T11:07:54.338Z,20.93
2018-11-29T11:10:22.653Z,20.50
2018-11-29T11:12:50.968Z,20.70
2018-11-29T11:15:19.338Z,19.97
2018-11-29T11:17:47.633Z,22.00
2018-11-29T11:20:15.959Z,20.10
2018-11-29T11:22:44.266Z,22.03
2018-11-29T11:25:12.841Z,20.93
2018-11-29T11:27:41.197Z,22.37
2018-11-29T11:30:13.647Z,20.90
2018-11-29T11:32:42.366Z,22.30
2018-11-29T11:35:10.949Z,20.43
2018-11-29T11:37:39.249Z,20.47
2018-11-29T11:40:09.674Z,20.27
2018-11-29T11:42:38.126Z,20.70
2018-11-29T11:45:11.399Z,21.63
2018-11-29T11:47:39.767Z,20.73
2018-11-29T11:50:12.278Z,18.60
2018-11-29T11:52:40.610Z,21.40
2018-11-29T11:55:10.326Z,21.93
2018-11-29T11:57:38.739Z,20.20
2018-11-29T12:00:14.346Z,18.57
2018-11-29T12:02:43.277Z,20.23
2018-11-29T12:05:12.021Z,22.20
2018-11-29T12:07:40.422Z,20.43
2018-11-29T12:10:13.394Z,18.37
2018-11-29T12:12:41.727Z,20.20
2018-11-29T12:15:11.246Z,19.27
2018-11-29T12:17:39.769Z,19.37
2018-11-29T12:20:13.321Z,21.40
2018-11-29T12:22:41.638Z,20.57
2018-11-29T12:25:13.019Z,23.33
2018-11-29T12:27:41.264Z,20.90
2018-11-29T12:30:18.694Z,18.87
2018-11-29T12:32:47.056Z,19.37
2018-11-29T12:35:15.548Z,20.80
2018-11-29T12:37:43.845Z,17.80
2018-11-29T12:40:14.361Z,19.50
2018-11-29T12:42:42.751Z,20.70
2018-11-29T12:45:13.102Z,18.47
2018-11-29T12:47:41.557Z,18.80
2018-11-29T12:50:11.784Z,19.40
2018-11-29T12:52:40.141Z,18.43
2018-11-29T12:55:09.477Z,19.63
2018-11-29T12:57:37.805Z,19.30
2018-11-29T13:00:12.793Z,19.40
2018-11-29T13:02:48.199Z,20.10
2018-11-29T13:05:16.610Z,17.93
2018-11-29T13:07:45.014Z,18.77
2018-11-29T13:10:15.419Z,19.70
2018-11-29T13:12:43.755Z,18.17
2018-11-29T13:15:16.436Z,18.13
2018-11-29T13:17:44.746Z,17.43
2018-11-29T13:20:16.415Z,18.33
2018-11-29T13:22:44.733Z,18.93
2018-11-29T13:25:14.808Z,18.80
2018-11-29T13:27:43.258Z,18.60
2018-11-29T13:30:15.191Z,17.50
2018-11-29T13:32:43.742Z,18.00
2018-11-29T13:35:17.647Z,20.10
2018-11-29T13:37:48.716Z,18.60
2018-11-29T13:42:48.402Z,20.07
2018-11-29T13:45:17.007Z,18.33
2018-11-29T13:47:45.899Z,19.53
2018-11-29T13:50:15.515Z,19.70
2018-11-29T13:52:45.180Z,21.50
2018-11-29T13:55:14.786Z,19.77
2018-11-29T13:57:47.269Z,18.07
2018-11-29T14:03:04.387Z,19.87
2018-11-29T14:05:38.986Z,19.80
2018-11-29T14:08:08.866Z,19.43
2018-11-29T14:10:38.210Z,18.47
2018-11-29T14:13:08.762Z,18.40
2018-11-29T14:15:37.795Z,18.60
2018-11-29T14:18:06.577Z,18.97
2018-11-29T14:20:35.532Z,16.97
2018-11-29T14:23:03.390Z,19.40
2018-11-29T14:25:31.701Z,18.43
2018-11-29T14:28:00.021Z,19.00
2018-11-29T14:30:29.410Z,17.80
2018-11-29T14:33:00.639Z,18.27
2018-11-29T14:35:29.039Z,19.20
2018-11-29T14:37:57.360Z,18.90
2018-11-29T14:40:27.571Z,19.37
2018-11-29T14:42:55.897Z,19.77
2018-11-29T14:45:25.223Z,18.20
2018-11-29T14:47:53.705Z,18.67
2018-11-29T14:50:25.393Z,17.60
2018-11-29T14:52:54.577Z,20.87
2018-11-29T14:55:22.898Z,17.67
2018-11-29T14:57:51.245Z,17.90
2018-11-29T15:00:19.601Z,17.50
2018-11-29T15:02:49.020Z,19.00
2018-11-29T15:05:31.686Z,16.97
2018-11-29T15:08:00.050Z,19.13
2018-11-29T15:10:28.434Z,18.40
2018-11-29T15:12:56.791Z,17.30
2018-11-29T15:15:25.218Z,17.10
2018-11-29T15:17:54.261Z,18.70
2018-11-29T15:20:25.888Z,16.40
2018-11-29T15:22:54.272Z,19.70
2018-11-29T15:25:22.611Z,18.00
2018-11-29T15:27:50.929Z,16.67
2018-11-29T15:30:20.946Z,19.13
2018-11-29T15:32:49.333Z,17.43
2018-11-29T15:35:17.734Z,18.57
2018-11-29T15:37:46.232Z,19.83
2018-11-29T15:40:16.350Z,18.90
2018-11-29T15:42:44.781Z,20.13
2018-11-29T15:45:28.527Z,29.30
2018-11-29T15:47:56.957Z,16.90
2018-11-29T15:50:25.749Z,17.30
2018-11-29T15:52:56.969Z,17.00
2018-11-29T15:55:25.321Z,17.90
2018-11-29T15:57:54.564Z,18.03
2018-11-29T16:00:26.234Z,19.33
2018-11-29T16:02:56.656Z,18.83
2018-11-29T16:05:25.438Z,18.50
2018-11-29T16:07:54.900Z,18.67
2018-11-29T16:10:25.348Z,15.33
2018-11-29T16:12:57.430Z,18.87
2018-11-29T16:15:25.805Z,19.00
2018-11-29T16:20:35.337Z,21.53
2018-11-29T16:23:08.343Z,17.17
2018-11-29T16:28:25.593Z,18.03
2018-11-29T16:30:57.614Z,18.17
2018-11-29T16:33:35.179Z,16.97
2018-11-29T16:36:03.826Z,16.83
2018-11-29T16:38:32.410Z,17.20
2018-11-29T16:41:00.941Z,18.17
2018-11-29T16:43:29.298Z,16.40
2018-11-29T16:45:57.699Z,17.13
2018-11-29T16:48:26.180Z,18.43
2018-11-29T16:50:54.557Z,16.37
2018-11-29T16:53:22.955Z,16.00
2018-11-29T16:55:51.374Z,17.07
2018-11-29T16:58:22.499Z,16.93
2018-11-29T17:00:51.576Z,16.80
2018-11-29T17:03:20.447Z,17.33
2018-11-29T17:05:49.378Z,16.10
2018-11-29T17:08:18.358Z,16.90
2018-11-29T17:10:47.601Z,15.50
2018-11-29T17:13:18.108Z,14.40
2018-11-29T17:15:47.848Z,15.17
2018-11-29T17:25:12.405Z,14.40
2018-11-29T17:27:47.143Z,15.70
2018-11-29T17:30:22.369Z,16.00
2018-11-29T17:35:06.329Z,14.17
2018-11-29T17:40:50.135Z,14.70
2018-11-29T17:43:31.715Z,15.10
2018-11-29T18:10:59.964Z,15.50
2018-11-29T18:13:38.094Z,16.10
2018-11-29T18:16:07.087Z,14.60
2018-11-29T18:18:35.823Z,16.63
2018-11-29T18:21:04.402Z,16.63
2018-11-29T18:23:32.869Z,15.77
2018-11-29T18:26:01.329Z,17.90
2018-11-29T18:28:30.744Z,18.53
2018-11-29T18:33:52.657Z,23.30
2018-11-29T19:03:36.150Z,13.50
2018-11-29T19:24:38.180Z,14.93
2018-11-29T19:30:04.203Z,14.20
2018-11-29T19:35:36.922Z,14.83
2018-11-29T20:24:07.459Z,14.50
2018-11-29T20:26:37.138Z,13.87
2018-11-29T20:29:16.385Z,15.17
2018-11-29T20:31:45.157Z,17.50
2018-11-29T20:34:29.674Z,15.03
2018-11-29T20:50:19.308Z,15.60
2018-11-29T20:52:52.225Z,15.00
2018-11-29T20:58:05.346Z,12.50
2018-11-29T21:00:33.810Z,13.30
2018-11-29T21:03:02.461Z,14.63
2018-11-29T21:05:32.474Z,18.83
2018-11-29T21:10:44.560Z,14.20
2018-11-29T21:16:11.316Z,13.00
2018-11-29T21:24:37.734Z,14.93
2018-11-29T21:27:06.454Z,15.40
2018-11-29T21:29:35.073Z,13.50
2018-11-29T21:32:12.868Z,13.70
2018-11-29T21:34:48.254Z,13.40
2018-11-29T21:37:16.731Z,13.00
2018-11-29T21:39:45.208Z,13.23
2018-11-29T21:42:14.189Z,13.20
2018-11-29T21:44:45.789Z,12.37
2018-11-29T22:42:35.807Z,11.60
2018-11-29T22:45:05.406Z,12.10
2018-11-29T22:47:44.365Z,11.87
2018-11-29T23:01:46.406Z,12.23
2018-11-29T23:05:04.179Z,12.90
2018-11-29T23:10:13.908Z,11.13
2018-11-29T23:12:43.016Z,12.07
2018-11-29T23:15:12.551Z,13.37
2018-11-29T23:20:39.693Z,12.33
2018-11-29T23:23:08.691Z,12.03
2018-11-29T23:25:37.575Z,12.53
2018-11-29T23:28:07.758Z,13.10
2018-11-29T23:30:37.350Z,12.37
2018-11-29T23:33:17.252Z,13.37
2018-11-29T23:38:37.629Z,13.33
2018-11-29T23:41:07.150Z,13.67
2018-11-29T23:46:47.228Z,11.83
2018-11-29T23:52:24.364Z,12.80
